Terminal Aerodrome Forecast
Issued by NWS

Home | Current Version | Previous Version | Text Only | Print | Product List | Glossary On
Versions: 1 2 3 4 5 6 7 8 9 10 11 12 13 14 15 16 17 18 19 20 21 22 23
655
FTUS43 KDVN 151855 AAB
TAFBRL
TAF AMD
KBRL 151855Z 1519/1618 04014KT 1 1/2SM +RA VCTS BKN025CB
      TEMPO 1519/1521 3SM RA BKN030
     FM152100 06012KT P6SM BKN035
     FM160100 08005KT P6SM SCT040
     FM161200 13006KT 4SM BR BKN015=

USA.gov is the U.S. government's official web portal to all federal, state and local government web resources and services.